AAY498 KBNA-KCLE
Flight info
| Callsign | AAY498 |
|---|---|
| Flight time | N/A |
| Altitude | 33000 |
| Route | KRSTA4 OLSIE IIU DRUGA ROKNN4 |
| Aircraft | A320/M-SDE3FGHIRWY/LB1 |
Departure
| Time | 2026-05-08 00:01 |
|---|---|
| Airport | Nashville International Airport (KBNA) |
Arrival
| Time | N/A |
|---|---|
| Airport | Cleveland Hopkins International Airport (KCLE) |
| Time | Latitude | Longitude | Altitude | Speed | Heading |
|---|---|---|---|---|---|
| 2026-05-07 23:36 | 36.13249 | -86.67240 | 569 ft | 0 kts | 60° |
| 2026-05-07 23:46 | 36.13243 | -86.67253 | 569 ft | 4 kts | 60° |
| 2026-05-07 23:46 | 36.13229 | -86.67281 | 569 ft | 4 kts | 57° |
| 2026-05-07 23:46 | 36.13214 | -86.67309 | 569 ft | 4 kts | 53° |
| 2026-05-07 23:47 | 36.13197 | -86.67334 | 569 ft | 4 kts | 37° |
| 2026-05-07 23:47 | 36.13176 | -86.67345 | 569 ft | 4 kts | 337° |
| 2026-05-07 23:47 | 36.13172 | -86.67343 | 569 ft | 0 kts | 325° |
| 2026-05-07 23:51 | 36.13184 | -86.67353 | 569 ft | 3 kts | 325° |
| 2026-05-07 23:52 | 36.13202 | -86.67366 | 568 ft | 3 kts | 339° |
| 2026-05-07 23:52 | 36.13222 | -86.67367 | 568 ft | 2 kts | 3° |
| 2026-05-07 23:52 | 36.13259 | -86.67364 | 567 ft | 9 kts | 5° |
| 2026-05-07 23:52 | 36.13312 | -86.67349 | 568 ft | 7 kts | 17° |
| 2026-05-07 23:53 | 36.13346 | -86.67336 | 569 ft | 3 kts | 18° |
| 2026-05-07 23:53 | 36.13363 | -86.67329 | 569 ft | 3 kts | 19° |
| 2026-05-07 23:53 | 36.13372 | -86.67325 | 569 ft | 0 kts | 19° |
| 2026-05-07 23:54 | 36.13376 | -86.67323 | 569 ft | 3 kts | 18° |
| 2026-05-07 23:54 | 36.13398 | -86.67320 | 569 ft | 3 kts | 0° |
| 2026-05-07 23:54 | 36.13431 | -86.67357 | 565 ft | 9 kts | 292° |
| 2026-05-07 23:55 | 36.13460 | -86.67471 | 563 ft | 17 kts | 287° |
| 2026-05-07 23:55 | 36.13496 | -86.67612 | 569 ft | 17 kts | 287° |
| 2026-05-07 23:55 | 36.13526 | -86.67737 | 574 ft | 14 kts | 279° |
| 2026-05-07 23:55 | 36.13464 | -86.67800 | 576 ft | 13 kts | 196° |
| 2026-05-07 23:56 | 36.13354 | -86.67840 | 574 ft | 19 kts | 197° |
| 2026-05-07 23:56 | 36.13219 | -86.67893 | 572 ft | 21 kts | 197° |
| 2026-05-07 23:56 | 36.13076 | -86.67949 | 573 ft | 22 kts | 198° |
| 2026-05-07 23:56 | 36.12927 | -86.68009 | 574 ft | 23 kts | 198° |
| 2026-05-07 23:57 | 36.12779 | -86.68065 | 577 ft | 22 kts | 196° |
| 2026-05-07 23:57 | 36.12620 | -86.68122 | 574 ft | 25 kts | 196° |
| 2026-05-07 23:57 | 36.12452 | -86.68183 | 574 ft | 26 kts | 197° |
| 2026-05-07 23:57 | 36.12278 | -86.68247 | 573 ft | 27 kts | 195° |
| 2026-05-07 23:58 | 36.12101 | -86.68306 | 575 ft | 27 kts | 195° |
| 2026-05-07 23:58 | 36.11928 | -86.68368 | 579 ft | 23 kts | 196° |
| 2026-05-07 23:58 | 36.11804 | -86.68412 | 582 ft | 14 kts | 195° |
| 2026-05-07 23:58 | 36.11737 | -86.68455 | 582 ft | 9 kts | 247° |
| 2026-05-07 23:59 | 36.11749 | -86.68526 | 580 ft | 4 kts | 288° |
| 2026-05-07 23:59 | 36.11750 | -86.68530 | 579 ft | 0 kts | 288° |
| 2026-05-07 23:59 | 36.11751 | -86.68535 | 579 ft | 2 kts | 288° |
| 2026-05-08 00:00 | 36.11770 | -86.68610 | 577 ft | 8 kts | 287° |
| 2026-05-08 00:00 | 36.11811 | -86.68629 | 576 ft | 7 kts | 20° |
| 2026-05-08 00:00 | 36.11841 | -86.68619 | 576 ft | 0 kts | 16° |
| 2026-05-08 00:00 | 36.11846 | -86.68618 | 576 ft | 5 kts | 16° |
| 2026-05-08 00:01 | 36.12102 | -86.68519 | 572 ft | 79 kts | 19° |
| 2026-05-08 00:01 | 36.12844 | -86.68228 | 577 ft | 141 kts | 17° |
| 2026-05-08 00:01 | 36.13915 | -86.67805 | 777 ft | 168 kts | 17° |
| 2026-05-08 00:01 | 36.15015 | -86.67356 | 1417 ft | 168 kts | 18° |
| 2026-05-08 00:02 | 36.16148 | -86.66865 | 1992 ft | 176 kts | 19° |
| 2026-05-08 00:02 | 36.17313 | -86.66347 | 2603 ft | 182 kts | 19° |
| 2026-05-08 00:02 | 36.18575 | -86.65786 | 2956 ft | 204 kts | 19° |
| 2026-05-08 00:02 | 36.19947 | -86.65182 | 3261 ft | 214 kts | 19° |
| 2026-05-08 00:03 | 36.21435 | -86.64537 | 3487 ft | 240 kts | 19° |
| 2026-05-08 00:03 | 36.23090 | -86.63827 | 3896 ft | 263 kts | 19° |
| 2026-05-08 00:03 | 36.24855 | -86.63075 | 4606 ft | 272 kts | 19° |
| 2026-05-08 00:03 | 36.26665 | -86.62308 | 5436 ft | 277 kts | 18° |
| 2026-05-08 00:04 | 36.28501 | -86.61533 | 6255 ft | 281 kts | 18° |
| 2026-05-08 00:04 | 36.30362 | -86.60732 | 7051 ft | 285 kts | 20° |
| 2026-05-08 00:04 | 36.32234 | -86.59860 | 7825 ft | 289 kts | 21° |
| 2026-05-08 00:04 | 36.34120 | -86.58948 | 8573 ft | 293 kts | 21° |
| 2026-05-08 00:05 | 36.36030 | -86.58015 | 9292 ft | 297 kts | 21° |
| 2026-05-08 00:05 | 36.37963 | -86.57070 | 9987 ft | 300 kts | 21° |
| 2026-05-08 00:05 | 36.39954 | -86.56104 | 10343 ft | 318 kts | 21° |
| 2026-05-08 00:05 | 36.42082 | -86.55075 | 10524 ft | 338 kts | 21° |